Time;durP1;ratioP1;P1;durP2;ratioP2;P2;SDS_P1;SDS_P2;PMS_P1;PMS_P2;Temp;Humidity;BMP_temperature;BMP_pressure;BME280_temperature;BME280_humidity;BME280_pressure;Samples;Min_cycle;Max_cycle;Signal;HPM_P1;HPM_P2
2022/04/30 00:02:12;;;;;;;31.00;18.10;;;;;;;3.00;65.81;98017.08;1623328;88;25366;-72
2022/04/30 00:04:41;;;;;;;27.17;17.37;;;;;;;2.97;65.88;98018.20;1692045;83;25863;-72
2022/04/30 00:07:09;;;;;;;25.45;15.93;;;;;;;2.96;65.99;98016.52;1715490;83;25701;-71
2022/04/30 00:09:36;;;;;;;26.17;15.95;;;;;;;2.98;66.13;98018.55;1715234;83;27479;-71
2022/04/30 00:12:04;;;;;;;24.63;16.20;;;;;;;3.01;66.22;98019.59;1715288;83;25750;-72
2022/04/30 00:14:31;;;;;;;26.42;15.48;;;;;;;2.99;66.09;98019.39;1714999;83;25789;-72
2022/04/30 00:16:58;;;;;;;28.95;17.32;;;;;;;2.96;66.39;98013.02;1715265;83;25915;-72
2022/04/30 00:19:24;;;;;;;28.15;17.02;;;;;;;2.93;66.46;98019.48;1715265;83;25711;-72
2022/04/30 00:21:51;;;;;;;33.50;19.25;;;;;;;2.92;66.58;98019.13;1715336;83;27363;-72
2022/04/30 00:24:18;;;;;;;56.80;30.57;;;;;;;2.84;66.62;98015.05;1715148;83;25683;-72
2022/04/30 00:26:45;;;;;;;50.78;29.05;;;;;;;2.85;66.82;98012.73;1715367;83;25698;-72
2022/04/30 00:29:12;;;;;;;48.70;26.73;;;;;;;2.90;66.95;98012.61;1715211;83;25885;-72
2022/04/30 00:31:39;;;;;;;48.05;26.55;;;;;;;2.94;66.98;98013.16;1715276;83;25709;-72
2022/04/30 00:34:06;;;;;;;50.65;25.80;;;;;;;2.97;67.04;98006.20;1715443;83;27659;-72
2022/04/30 00:36:34;;;;;;;46.88;26.37;;;;;;;2.98;67.01;98009.71;1715085;83;25734;-72
2022/04/30 00:39:00;;;;;;;43.68;24.57;;;;;;;2.95;67.07;98008.67;1715375;83;25628;-71
2022/04/30 00:41:27;;;;;;;39.85;23.40;;;;;;;2.93;67.14;98010.14;1715151;83;26597;-72
2022/04/30 00:43:54;;;;;;;39.08;20.00;;;;;;;2.90;67.14;98014.44;1715433;83;25850;-72
2022/04/30 00:46:24;;;;;;;43.17;21.30;;;;;;;2.90;67.20;98008.61;1714800;83;27418;-72
2022/04/30 00:48:53;;;;;;;40.60;21.17;;;;;;;2.87;67.28;98008.09;1714655;83;25780;-72
2022/04/30 00:51:23;;;;;;;43.60;21.07;;;;;;;2.84;67.29;98003.89;1714957;83;25706;-72
2022/04/30 00:53:52;;;;;;;32.10;17.98;;;;;;;2.80;67.30;97997.66;1715087;83;26379;-72
2022/04/30 00:56:36;;;;;;;31.48;17.12;;;;;;;2.78;67.41;98004.95;1714916;83;25714;-72
2022/04/30 00:59:06;;;;;;;30.08;16.15;;;;;;;2.75;67.44;98004.78;1714560;83;27550;-73
2022/04/30 01:01:35;;;;;;;27.22;16.40;;;;;;;2.72;67.50;97998.90;1714909;83;25829;-72
2022/04/30 01:04:03;;;;;;;29.32;16.42;;;;;;;2.71;67.54;97994.55;1715029;83;25781;-72
2022/04/30 01:06:57;;;;;;;31.30;16.40;;;;;;;2.69;67.60;97985.86;1714952;83;26612;-72
2022/04/30 01:09:28;;;;;;;25.55;15.35;;;;;;;2.68;67.61;97990.84;1714961;83;25702;-72
2022/04/30 01:11:59;;;;;;;27.43;15.90;;;;;;;2.65;67.61;97992.49;1715208;83;27411;-73
2022/04/30 01:14:31;;;;;;;28.38;15.95;;;;;;;2.60;67.66;97994.75;1639901;86;25815;-72
2022/04/30 01:16:59;;;;;;;24.45;15.75;;;;;;;2.54;67.69;97994.33;1639957;87;25898;-71
2022/04/30 01:19:27;;;;;;;28.20;16.65;;;;;;;2.49;67.66;97995.28;1639915;87;26484;-71
2022/04/30 01:21:58;;;;;;;30.30;15.55;;;;;;;2.43;67.74;97997.19;1639849;87;25819;-72
2022/04/30 01:24:27;;;;;;;25.35;14.50;;;;;;;2.41;67.81;97995.19;1602505;89;27410;-71
2022/04/30 01:29:25;;;;;;;26.42;14.83;;;;;;;2.34;67.81;98000.73;1551955;92;25814;-72
2022/04/30 01:37:35;;;;;;;28.95;15.00;;;;;;;2.20;67.93;97999.02;1551622;92;28496;-72
2022/04/30 01:40:11;;;;;;;30.02;16.10;;;;;;;2.18;67.96;98001.83;1562453;91;25387;-71
2022/04/30 01:42:46;;;;;;;25.68;14.55;;;;;;;2.13;67.95;97996.95;1563938;91;25999;-71
2022/04/30 01:45:16;;;;;;;28.77;14.80;;;;;;;2.07;68.04;97999.33;1535961;93;25903;-72
2022/04/30 01:47:47;;;;;;;29.70;16.42;;;;;;;2.06;68.20;97996.31;1520459;94;25853;-71
2022/04/30 01:50:14;;;;;;;27.27;15.38;;;;;;;2.04;68.16;97999.16;1520439;94;28317;-72
2022/04/30 01:52:41;;;;;;;26.70;15.40;;;;;;;2.00;68.28;97996.42;1520484;94;25770;-72
2022/04/30 01:55:09;;;;;;;27.07;14.98;;;;;;;1.99;68.36;97990.74;1520548;94;25834;-72
2022/04/30 01:57:41;;;;;;;25.68;15.25;;;;;;;1.93;68.33;97994.48;1520500;94;25882;-72
2022/04/30 02:00:10;;;;;;;21.57;13.00;;;;;;;1.90;68.37;97993.42;1520692;94;25508;-73
2022/04/30 02:02:40;;;;;;;23.22;13.62;;;;;;;1.89;68.42;97995.74;1520594;94;27487;-72
2022/04/30 02:05:08;;;;;;;23.98;13.53;;;;;;;1.87;68.50;97991.05;1520307;94;25843;-72
2022/04/30 02:07:53;;;;;;;21.75;12.37;;;;;;;1.85;68.59;97991.67;1501079;94;25747;-71
2022/04/30 02:10:22;;;;;;;20.45;11.43;;;;;;;1.86;68.62;97988.03;1544219;90;25972;-72
2022/04/30 02:12:51;;;;;;;23.73;13.40;;;;;;;1.84;68.63;97982.84;1569070;91;26094;-72
2022/04/30 02:15:19;;;;;;;21.02;12.55;;;;;;;1.81;68.66;97985.81;1568668;91;27535;-72
2022/04/30 02:17:47;;;;;;;21.57;13.15;;;;;;;1.79;68.64;97980.63;1568562;91;25899;-72
2022/04/30 02:20:24;;;;;;;23.55;13.72;;;;;;;1.75;68.72;97979.72;1571257;86;25838;-71
2022/04/30 02:22:58;;;;;;;27.65;15.23;;;;;;;1.71;68.83;97971.66;1681570;84;25831;-72
2022/04/30 02:25:26;;;;;;;19.75;12.85;;;;;;;1.68;68.84;97975.95;1603943;88;25584;-73
2022/04/30 02:27:59;;;;;;;19.62;12.78;;;;;;;1.65;68.92;97974.90;1635775;87;28274;-72
2022/04/30 02:30:27;;;;;;;17.95;12.00;;;;;;;1.63;68.87;97972.38;1583905;89;25744;-72
2022/04/30 02:32:57;;;;;;;18.02;11.50;;;;;;;1.61;68.88;97970.83;1598059;89;25776;-71
2022/04/30 02:35:28;;;;;;;18.42;12.63;;;;;;;1.57;68.85;97971.59;1610386;87;25874;-71
2022/04/30 02:37:59;;;;;;;20.45;12.25;;;;;;;1.52;68.84;97967.20;1576684;90;25838;-73
2022/04/30 02:40:28;;;;;;;20.62;10.93;;;;;;;1.51;69.00;97968.67;1576714;90;28444;-72
2022/04/30 02:43:06;;;;;;;17.67;12.23;;;;;;;1.51;69.00;97964.20;1576688;90;25868;-71
2022/04/30 02:45:36;;;;;;;20.65;12.53;;;;;;;1.50;69.12;97967.84;1578478;90;25852;-71
2022/04/30 02:48:06;;;;;;;21.48;12.25;;;;;;;1.50;69.18;97966.50;1587730;90;25846;-73
2022/04/30 02:50:37;;;;;;;19.35;12.15;;;;;;;1.49;69.17;97952.84;1587828;90;25998;-72
2022/04/30 02:53:05;;;;;;;19.25;12.85;;;;;;;1.50;69.16;97960.34;1588169;90;27389;-71
2022/04/30 02:55:32;;;;;;;18.90;11.97;;;;;;;1.49;69.15;97955.51;1587981;89;25619;-72
2022/04/30 03:03:20;;;;;;;19.55;12.20;;;;;;;1.39;69.15;97956.85;1549022;91;25750;-72
2022/04/30 03:05:50;;;;;;;17.80;11.88;;;;;;;1.37;69.11;97956.14;1548908;92;27500;-73
2022/04/30 03:08:20;;;;;;;20.50;12.25;;;;;;;1.36;69.21;97958.94;1548815;92;26005;-72
2022/04/30 03:10:51;;;;;;;20.30;12.05;;;;;;;1.30;69.35;97958.19;1548882;92;25913;-72
2022/04/30 03:13:18;;;;;;;19.20;11.48;;;;;;;1.27;69.49;97954.47;1545307;92;25888;-71
2022/04/30 03:15:50;;;;;;;18.67;11.15;;;;;;;1.25;69.37;97955.94;1545358;92;25880;-72
2022/04/30 03:23:54;;;;;;;26.00;12.18;;;;;;;1.24;69.52;97959.58;1525521;94;25832;-70
2022/04/30 03:26:21;;;;;;;18.80;10.95;;;;;;;1.23;69.55;97961.88;1539009;93;25880;-72
2022/04/30 03:28:47;;;;;;;20.95;12.20;;;;;;;1.24;69.60;97961.39;1496600;94;25942;-71
2022/04/30 03:31:16;;;;;;;28.00;13.28;;;;;;;1.22;69.63;97956.70;1520430;94;28796;-71
2022/04/30 03:33:47;;;;;;;35.52;16.23;;;;;;;1.20;69.65;97958.20;1521580;92;26526;-71
2022/04/30 03:36:15;;;;;;;32.42;15.10;;;;;;;1.17;69.78;97954.97;1557034;92;25821;-71
2022/04/30 03:38:39;;;;;;;38.40;16.52;;;;;;;1.16;69.81;97956.78;1557205;92;25806;-71
2022/04/30 03:41:06;;;;;;;44.90;19.87;;;;;;;1.17;69.87;97950.97;1557081;92;26067;-71
2022/04/30 03:43:33;;;;;;;67.70;24.40;;;;;;;1.18;69.89;97951.33;1557148;92;28328;-71
2022/04/30 03:45:59;;;;;;;53.73;22.60;;;;;;;1.16;69.93;97946.63;1556207;92;25845;-73
2022/04/30 03:48:26;;;;;;;81.35;29.00;;;;;;;1.15;69.91;97946.28;1554612;92;25954;-72
2022/04/30 03:50:53;;;;;;;95.20;31.73;;;;;;;1.15;69.93;97946.28;1554704;92;26628;-72
2022/04/30 03:53:20;;;;;;;108.72;36.15;;;;;;;1.15;69.97;97952.44;1605797;87;25885;-72
2022/04/30 03:55:46;;;;;;;85.53;31.07;;;;;;;1.16;69.98;97949.30;1640741;85;27386;-71
2022/04/30 03:58:13;;;;;;;62.60;24.02;;;;;;;1.16;70.07;97947.96;1640551;85;25635;-71
2022/04/30 04:00:39;;;;;;;61.50;21.30;;;;;;;1.19;70.15;97951.19;1640751;85;25526;-71
2022/04/30 04:03:06;;;;;;;44.10;19.98;;;;;;;1.24;70.25;97952.92;1640730;87;25719;-71
2022/04/30 04:05:33;;;;;;;39.03;19.55;;;;;;;1.27;70.26;97957.13;1641325;85;25769;-71
2022/04/30 04:08:00;;;;;;;46.00;19.92;;;;;;;1.28;70.32;97952.16;1666192;85;27476;-72
2022/04/30 04:10:27;;;;;;;39.10;19.87;;;;;;;1.32;70.36;97950.91;1703860;82;25680;-71
2022/04/30 04:17:37;;;;;;;35.43;18.25;;;;;;;1.34;70.43;97954.25;1699506;84;25282;-72
2022/04/30 04:18:07;;;;;;;31.87;18.12;;;;;;;1.39;70.55;97946.70;1699275;84;25657;-72
2022/04/30 04:20:34;;;;;;;35.78;19.85;;;;;;;1.43;70.59;97948.11;1699647;84;28249;-73
2022/04/30 04:23:01;;;;;;;34.45;16.57;;;;;;;1.48;70.65;97951.16;1699386;84;25751;-71
2022/04/30 04:28:13;;;;;;;36.88;16.40;;;;;;;1.56;70.78;97959.30;1699419;84;25819;-72
2022/04/30 04:30:39;;;;;;;34.75;17.45;;;;;;;1.61;70.79;97953.53;1699590;84;25732;-73
2022/04/30 04:33:06;;;;;;;30.77;15.80;;;;;;;1.66;70.88;97952.63;1699383;84;27221;-73
2022/04/30 04:35:33;;;;;;;30.10;15.78;;;;;;;1.71;70.92;97953.86;1699550;84;25779;-71
2022/04/30 04:37:59;;;;;;;29.10;16.27;;;;;;;1.76;71.00;97954.29;1699310;84;25760;-71
2022/04/30 04:40:26;;;;;;;28.50;16.42;;;;;;;1.81;71.03;97953.35;1699434;84;26334;-71
2022/04/30 04:42:52;;;;;;;35.68;18.40;;;;;;;1.87;71.22;97951.11;1699537;84;25657;-72
2022/04/30 04:45:22;;;;;;;35.80;18.12;;;;;;;1.94;71.24;97954.86;1699328;84;27631;-71
2022/04/30 04:47:49;;;;;;;40.65;20.32;;;;;;;2.02;71.16;97951.02;1715128;83;25792;-71
2022/04/30 04:50:16;;;;;;;42.90;24.90;;;;;;;2.08;71.15;97951.26;1692796;83;25332;-71
2022/04/30 04:52:44;;;;;;;52.45;25.30;;;;;;;2.16;71.19;97951.88;1717193;83;25741;-72
2022/04/30 04:55:11;;;;;;;41.53;23.42;;;;;;;2.23;71.21;97960.11;1717300;83;25718;-72
2022/04/30 04:57:39;;;;;;;39.48;20.77;;;;;;;2.30;71.17;97960.70;1717238;83;27531;-71
2022/04/30 05:00:08;;;;;;;45.85;21.82;;;;;;;2.35;71.23;97954.45;1717182;83;25768;-72
2022/04/30 05:02:37;;;;;;;49.95;26.17;;;;;;;2.43;71.17;97957.22;1716991;83;25873;-73
2022/04/30 05:05:05;;;;;;;52.67;28.15;;;;;;;2.51;71.34;97954.68;1717056;83;26304;-73
2022/04/30 05:07:31;;;;;;;51.53;28.05;;;;;;;2.56;71.52;97953.38;1717221;83;25697;-71
2022/04/30 05:09:58;;;;;;;43.55;25.55;;;;;;;2.63;71.67;97949.15;1717255;83;27374;-72
2022/04/30 05:12:24;;;;;;;39.70;24.45;;;;;;;2.68;71.83;97950.36;1717143;83;26047;-72
2022/04/30 05:14:53;;;;;;;36.73;22.07;;;;;;;2.76;71.98;97946.97;1717327;83;25240;-72
2022/04/30 05:17:20;;;;;;;33.13;18.95;;;;;;;2.86;72.08;97943.75;1717305;83;25700;-72
2022/04/30 05:19:46;;;;;;;27.50;18.07;;;;;;;2.93;72.04;97946.64;1717297;83;25758;-72
2022/04/30 05:22:14;;;;;;;30.65;17.82;;;;;;;3.02;72.01;97942.56;1717426;83;27662;-72
2022/04/30 05:24:40;;;;;;;33.20;17.50;;;;;;;3.12;71.80;97948.70;1717199;83;25676;-73
2022/04/30 05:27:08;;;;;;;34.00;18.92;;;;;;;3.23;71.60;97943.63;1717372;83;25216;-73
2022/04/30 05:29:36;;;;;;;32.48;18.62;;;;;;;3.34;71.46;97943.89;1717012;83;26224;-72
2022/04/30 05:32:03;;;;;;;32.20;17.50;;;;;;;3.44;71.45;97932.63;1717317;83;25675;-72
2022/04/30 05:34:30;;;;;;;29.45;17.73;;;;;;;3.53;71.46;97927.70;1717199;83;27391;-73
2022/04/30 05:36:57;;;;;;;29.72;16.87;;;;;;;3.63;71.65;97929.28;1716977;83;25743;-71
2022/04/30 05:39:23;;;;;;;28.12;17.52;;;;;;;3.76;71.74;97932.05;1717398;83;25704;-71
2022/04/30 05:41:50;;;;;;;23.80;15.35;;;;;;;3.88;71.61;97930.30;1717401;83;25745;-72
2022/04/30 05:44:16;;;;;;;24.75;14.38;;;;;;;4.01;71.31;97925.88;1717225;83;25911;-73
2022/04/30 05:46:43;;;;;;;20.95;13.70;;;;;;;4.13;71.18;97919.77;1713872;83;28449;-73
2022/04/30 05:49:09;;;;;;;25.82;15.23;;;;;;;4.28;71.11;97918.19;1724209;83;25634;-72
2022/04/30 05:51:36;;;;;;;21.25;13.88;;;;;;;4.41;71.09;97918.58;1718712;83;25655;-72
2022/04/30 05:54:03;;;;;;;24.75;13.53;;;;;;;4.55;70.88;97919.32;1681828;85;25912;-72
2022/04/30 05:56:30;;;;;;;21.10;13.78;;;;;;;4.70;70.75;97915.53;1714329;83;25425;-72
2022/04/30 05:58:56;;;;;;;21.97;13.60;;;;;;;4.83;70.43;97911.88;1714199;83;27569;-72
2022/04/30 06:01:23;;;;;;;23.12;12.55;;;;;;;4.96;70.26;97916.75;1681865;85;25799;-74
2022/04/30 06:03:50;;;;;;;21.77;12.98;;;;;;;5.08;70.19;97918.12;1713874;82;25844;-72
2022/04/30 06:06:19;;;;;;;21.02;11.68;;;;;;;5.23;70.09;97916.48;1681933;85;25906;-74
2022/04/30 06:08:45;;;;;;;21.50;12.50;;;;;;;5.36;69.82;97911.48;1713912;83;25800;-71
2022/04/30 06:11:11;;;;;;;19.30;11.28;;;;;;;5.53;69.55;97912.83;1682056;85;28352;-71
2022/04/30 06:13:38;;;;;;;24.00;13.00;;;;;;;5.66;69.22;97915.84;1713961;83;26017;-72
2022/04/30 06:16:05;;;;;;;21.42;12.73;;;;;;;5.81;69.10;97911.45;1714040;83;25690;-72
2022/04/30 06:18:32;;;;;;;17.42;12.90;;;;;;;5.97;69.03;97912.82;1682089;85;25836;-72
2022/04/30 06:20:58;;;;;;;22.37;13.08;;;;;;;6.12;68.76;97912.47;1714151;83;25774;-73
2022/04/30 06:23:25;;;;;;;20.32;12.90;;;;;;;6.27;68.62;97906.40;1682042;85;27453;-73
2022/04/30 06:25:52;;;;;;;22.35;14.38;;;;;;;6.42;68.71;97900.62;1714119;83;25653;-72
2022/04/30 06:28:19;;;;;;;22.40;13.78;;;;;;;6.57;68.59;97902.92;1681768;85;25775;-73
2022/04/30 06:30:46;;;;;;;22.00;13.40;;;;;;;6.73;68.47;97896.66;1713946;83;25782;-72
2022/04/30 06:33:13;;;;;;;23.05;13.62;;;;;;;6.88;68.36;97899.74;1682069;85;25776;-72
2022/04/30 06:35:39;;;;;;;22.67;12.85;;;;;;;7.03;67.90;97894.46;1714079;83;28042;-74
2022/04/30 06:38:09;;;;;;;22.25;12.95;;;;;;;7.19;67.48;97893.53;1681831;85;25790;-72
2022/04/30 06:40:35;;;;;;;21.45;12.25;;;;;;;7.34;67.35;97891.76;1714053;83;25722;-72
2022/04/30 06:43:02;;;;;;;25.60;13.65;;;;;;;7.50;66.94;97892.95;1681900;85;25841;-72
2022/04/30 06:45:30;;;;;;;19.90;12.20;;;;;;;7.65;66.71;97894.86;1714025;83;25479;-72
2022/04/30 06:47:56;;;;;;;16.30;11.75;;;;;;;7.79;66.45;97893.56;1692192;84;28187;-72
2022/04/30 06:50:23;;;;;;;20.72;13.75;;;;;;;7.94;66.04;97889.56;1712051;83;26469;-71
2022/04/30 06:58:05;;;;;;;18.25;12.10;;;;;;;8.39;64.96;97881.04;1658042;86;25497;-73
2022/04/30 07:03:16;;;;;;;16.97;11.40;;;;;;;8.71;64.74;97873.91;1657897;86;25667;-73
2022/04/30 07:05:44;;;;;;;23.25;12.40;;;;;;;8.88;64.48;97868.64;1657959;86;25821;-73
2022/04/30 07:08:11;;;;;;;19.70;12.58;;;;;;;9.03;64.28;97868.09;1658007;86;26545;-73
2022/04/30 07:10:38;;;;;;;21.48;12.78;;;;;;;9.19;63.75;97866.16;1657815;86;25835;-72
2022/04/30 07:13:04;;;;;;;20.85;11.85;;;;;;;9.30;63.83;97860.27;1657730;86;28258;-72
2022/04/30 07:15:31;;;;;;;19.82;11.83;;;;;;;9.43;63.51;97860.39;1657769;86;26438;-73
2022/04/30 07:17:58;;;;;;;21.85;13.15;;;;;;;9.57;63.31;97860.00;1657931;86;25917;-73
2022/04/30 07:20:24;;;;;;;18.67;11.70;;;;;;;9.71;62.82;97866.67;1657947;86;25832;-73
2022/04/30 07:22:51;;;;;;;21.85;10.93;;;;;;;9.85;62.53;97862.22;1657995;86;25773;-72
2022/04/30 07:25:18;;;;;;;18.92;11.48;;;;;;;10.00;62.29;97872.92;1658009;86;27621;-73
2022/04/30 07:27:44;;;;;;;15.03;10.85;;;;;;;10.15;62.09;97874.97;1657804;86;25729;-73
2022/04/30 07:30:11;;;;;;;17.07;10.32;;;;;;;10.27;62.05;97868.03;1657850;86;25762;-74
2022/04/30 07:32:41;;;;;;;16.10;11.10;;;;;;;10.40;61.59;97871.33;1685781;84;25852;-73
2022/04/30 07:35:09;;;;;;;14.98;10.40;;;;;;;10.54;61.20;97870.38;1700801;83;25805;-73
2022/04/30 07:37:35;;;;;;;18.00;12.80;;;;;;;10.66;61.11;97864.72;1705597;83;27494;-74
2022/04/30 07:40:02;;;;;;;18.82;12.43;;;;;;;10.81;60.66;97860.53;1712506;83;25500;-73
2022/04/30 07:42:28;;;;;;;17.27;10.82;;;;;;;10.92;60.21;97862.66;1712711;83;25776;-74
2022/04/30 07:44:59;;;;;;;19.32;10.72;;;;;;;11.00;59.82;97860.27;1697402;84;25738;-72
2022/04/30 07:47:23;;;;;;;16.87;11.38;;;;;;;11.13;59.63;97857.09;1689853;84;25735;-73
2022/04/30 07:49:50;;;;;;;15.43;10.65;;;;;;;11.30;59.34;97852.68;1675822;84;28291;-73
2022/04/30 07:52:16;;;;;;;13.48;10.30;;;;;;;11.48;59.13;97852.91;1675569;85;25731;-74
2022/04/30 07:54:43;;;;;;;13.65;10.60;;;;;;;11.63;58.79;97850.84;1675743;85;26348;-73
2022/04/30 07:57:10;;;;;;;18.98;12.85;;;;;;;11.81;58.30;97846.21;1675767;85;26399;-73
2022/04/30 07:59:36;;;;;;;16.82;10.58;;;;;;;11.94;57.63;97848.08;1675928;85;25797;-73
2022/04/30 08:02:04;;;;;;;15.25;10.70;;;;;;;12.05;57.23;97844.74;1675788;84;27208;-73
2022/04/30 08:04:31;;;;;;;13.95;9.85;;;;;;;12.16;56.88;97839.52;1675689;85;25755;-74
2022/04/30 08:06:59;;;;;;;16.82;9.60;;;;;;;12.33;56.44;97848.52;1675546;85;25728;-73
2022/04/30 08:09:28;;;;;;;12.05;9.08;;;;;;;12.48;56.23;97847.25;1675312;85;25749;-73
2022/04/30 08:11:54;;;;;;;13.28;8.75;;;;;;;12.52;56.13;97843.08;1675909;85;25758;-73
2022/04/30 08:14:21;;;;;;;17.85;8.88;;;;;;;12.65;55.81;97840.02;1675637;85;28350;-74
2022/04/30 08:16:47;;;;;;;11.70;8.65;;;;;;;12.78;56.01;97842.67;1675581;84;25733;-75
2022/04/30 08:19:15;;;;;;;11.20;8.43;;;;;;;12.95;55.58;97841.12;1675458;85;25751;-75
2022/04/30 08:21:42;;;;;;;14.47;8.10;;;;;;;13.21;55.23;97838.84;1675779;85;26565;-74
2022/04/30 08:24:09;;;;;;;11.50;8.30;;;;;;;13.56;54.94;97837.88;1675868;85;25811;-73
2022/04/30 08:26:36;;;;;;;15.35;8.38;;;;;;;13.91;54.79;97836.34;1675593;85;28271;-75
2022/04/30 08:29:02;;;;;;;14.65;8.55;;;;;;;14.28;54.39;97833.70;1675635;84;25468;-73
2022/04/30 08:31:29;;;;;;;12.78;8.68;;;;;;;14.45;53.54;97836.17;1675696;85;25758;-73
2022/04/30 08:33:59;;;;;;;16.67;10.70;;;;;;;14.59;53.28;97836.33;1675755;85;25827;-73
2022/04/30 08:36:25;;;;;;;16.30;9.05;;;;;;;14.82;53.89;97836.17;1671653;85;26378;-75
2022/04/30 08:38:52;;;;;;;12.23;8.45;;;;;;;15.09;53.04;97834.78;1655394;85;27214;-73
2022/04/30 08:41:18;;;;;;;13.13;9.35;;;;;;;15.34;52.49;97820.48;1647690;87;25665;-74
2022/04/30 08:43:48;;;;;;;13.98;8.93;;;;;;;15.59;52.15;97827.16;1659820;85;25768;-75
2022/04/30 08:46:20;;;;;;;13.68;8.85;;;;;;;15.85;51.63;97820.46;1596304;88;25909;-73
2022/04/30 08:48:48;;;;;;;16.05;8.60;;;;;;;16.07;51.64;97822.08;1586608;89;25797;-73
2022/04/30 08:51:16;;;;;;;11.43;7.62;;;;;;;16.24;50.96;97822.20;1584806;90;27305;-73
2022/04/30 08:53:42;;;;;;;11.48;7.33;;;;;;;16.38;50.20;97816.81;1553548;92;25497;-73
2022/04/30 08:56:10;;;;;;;12.60;7.58;;;;;;;16.53;49.78;97813.08;1595169;89;25860;-73
2022/04/30 08:58:36;;;;;;;12.85;7.50;;;;;;;16.69;48.61;97806.89;1595307;89;27073;-73
2022/04/30 09:01:07;;;;;;;10.88;7.42;;;;;;;16.78;48.78;97806.84;1593803;90;26111;-75
2022/04/30 09:03:38;;;;;;;10.23;7.20;;;;;;;17.05;48.33;97808.45;1593662;89;27594;-73
2022/04/30 09:06:06;;;;;;;9.78;7.08;;;;;;;17.36;47.99;97801.69;1593595;89;25320;-74
2022/04/30 09:08:33;;;;;;;10.82;7.72;;;;;;;17.51;47.38;97803.30;1593889;89;25797;-74
2022/04/30 09:11:07;;;;;;;10.35;7.67;;;;;;;17.57;46.93;97798.23;1593768;90;25873;-74
2022/04/30 09:13:46;;;;;;;10.93;7.12;;;;;;;17.58;46.83;97801.80;1593851;89;25976;-73
2022/04/30 09:16:23;;;;;;;12.93;7.00;;;;;;;17.59;46.83;97793.37;1573405;91;27266;-73
2022/04/30 09:18:52;;;;;;;10.08;6.55;;;;;;;17.59;45.44;97792.00;1573338;91;25884;-75
2022/04/30 09:21:19;;;;;;;9.80;6.85;;;;;;;17.49;45.41;97786.91;1573303;91;25829;-74
2022/04/30 09:23:46;;;;;;;12.68;7.20;;;;;;;17.62;45.31;97791.52;1573424;91;25855;-73
2022/04/30 09:26:13;;;;;;;10.90;6.67;;;;;;;17.70;45.33;97790.84;1573582;91;25820;-73
2022/04/30 09:28:44;;;;;;;9.25;7.12;;;;;;;17.80;44.81;97783.64;1573466;91;27440;-73
2022/04/30 09:31:15;;;;;;;8.25;6.10;;;;;;;18.00;44.84;97780.39;1573265;91;25911;-74
2022/04/30 09:33:56;;;;;;;9.40;6.53;;;;;;;18.23;44.54;97776.66;1551113;92;25838;-74
2022/04/30 09:39:15;;;;;;;10.93;6.95;;;;;;;18.56;44.18;97777.94;1551177;92;25916;-74
2022/04/30 09:41:42;;;;;;;12.68;7.00;;;;;;;18.74;43.59;97768.62;1551053;92;27538;-75
2022/04/30 09:44:10;;;;;;;11.50;7.40;;;;;;;18.87;43.08;97765.50;1575756;90;25856;-74
2022/04/30 09:46:40;;;;;;;12.25;6.90;;;;;;;18.97;43.23;97768.34;1577951;90;25776;-75
2022/04/30 09:54:41;;;;;;;9.15;7.35;;;;;;;19.10;42.50;97767.66;1610025;89;27642;-74
2022/04/30 09:57:09;;;;;;;10.53;6.97;;;;;;;19.13;42.56;97764.42;1610242;89;25837;-74
2022/04/30 09:59:38;;;;;;;9.88;6.35;;;;;;;19.06;41.16;97762.73;1610479;89;25765;-74
2022/04/30 10:02:08;;;;;;;8.68;6.40;;;;;;;18.89;41.75;97761.97;1610234;89;26395;-75
2022/04/30 10:04:36;;;;;;;7.95;6.25;;;;;;;18.90;41.82;97759.52;1610197;89;25753;-74
2022/04/30 10:07:05;;;;;;;12.90;6.83;;;;;;;18.97;41.97;97758.77;1608496;88;27665;-76
2022/04/30 10:09:46;;;;;;;9.93;6.90;;;;;;;19.08;41.81;97754.80;1632324;87;25834;-74
2022/04/30 10:12:34;;;;;;;10.88;6.62;;;;;;;19.17;41.52;97749.15;1629479;87;25774;-76
2022/04/30 10:15:28;;;;;;;9.00;6.72;;;;;;;19.29;41.52;97750.65;1634933;87;26465;-74
2022/04/30 10:17:57;;;;;;;6.70;5.35;;;;;;;19.70;40.82;97739.53;1613286;87;25885;-75
2022/04/30 10:20:37;;;;;;;9.38;6.25;;;;;;;20.19;40.86;97744.81;1635110;87;28363;-74
2022/04/30 10:23:07;;;;;;;14.85;6.10;;;;;;;20.45;40.18;97739.79;1635041;87;25742;-75
2022/04/30 10:25:46;;;;;;;7.67;6.35;;;;;;;20.74;39.87;97730.61;1635139;87;26067;-76
2022/04/30 10:28:23;;;;;;;11.80;6.05;;;;;;;21.06;39.70;97733.71;1646731;86;25700;-75
2022/04/30 10:31:05;;;;;;;10.43;5.78;;;;;;;21.52;38.72;97693.44;1646907;86;26413;-74
2022/04/30 10:33:33;;;;;;;8.18;5.67;;;;;;;21.52;38.72;97693.44;1647087;86;27550;-74
2022/04/30 10:36:09;;;;;;;25.25;20.08;;;;;;;21.90;39.47;97719.53;1647719;86;25862;-75
2022/04/30 10:38:38;;;;;;;7.75;6.12;;;;;;;22.16;38.29;97718.97;1662133;85;26041;-75
2022/04/30 10:41:10;;;;;;;10.85;6.40;;;;;;;22.13;37.64;97714.02;1661986;85;26466;-74
2022/04/30 10:43:42;;;;;;;9.73;7.47;;;;;;;22.19;36.69;97712.92;1662079;85;25924;-76
2022/04/30 10:46:23;;;;;;;;;;;;;;;22.21;36.37;97709.36;1664581;86;27453;-74
2022/04/30 10:48:50;;;;;;;9.18;6.53;;;;;;;22.18;34.50;97707.98;1667915;85;25846;-75
2022/04/30 10:51:34;;;;;;;8.35;6.42;;;;;;;22.37;36.01;97707.36;1694097;84;25847;-76
2022/04/30 10:54:06;;;;;;;9.50;6.00;;;;;;;22.63;35.25;97697.37;1644062;87;25811;-75
2022/04/30 10:56:33;;;;;;;7.42;5.90;;;;;;;22.85;35.48;97699.77;1644501;87;25804;-75
2022/04/30 10:58:59;;;;;;;10.40;6.62;;;;;;;23.09;35.18;97694.41;1644335;87;28204;-75
2022/04/30 11:01:26;;;;;;;11.08;6.53;;;;;;;23.20;35.06;97684.97;1644363;85;26022;-74
2022/04/30 11:03:53;;;;;;;9.13;6.10;;;;;;;23.18;34.71;97689.14;1644220;87;25794;-75
2022/04/30 11:06:23;;;;;;;8.28;6.37;;;;;;;23.09;35.03;97684.77;1644373;87;25885;-74
2022/04/30 11:09:05;;;;;;;8.05;6.00;;;;;;;23.19;34.87;97687.45;1618146;87;25944;-75
2022/04/30 11:11:34;;;;;;;7.85;6.40;;;;;;;23.08;33.74;97683.67;1621058;88;27522;-74
2022/04/30 11:14:09;;;;;;;7.70;5.80;;;;;;;23.00;33.60;97683.73;1620869;88;26345;-75
2022/04/30 11:16:45;;;;;;;8.73;5.17;;;;;;;23.15;33.98;97685.02;1621015;88;25919;-75
2022/04/30 11:19:14;;;;;;;7.05;5.75;;;;;;;23.45;33.98;97690.02;1621037;88;25768;-75
2022/04/30 11:21:45;;;;;;;7.60;5.70;;;;;;;23.56;33.00;97684.17;1621027;88;25804;-75
2022/04/30 11:24:13;;;;;;;10.13;6.05;;;;;;;23.55;33.29;97677.57;1610511;88;28066;-75
2022/04/30 11:26:42;;;;;;;6.70;5.35;;;;;;;23.58;32.98;97667.36;1567175;91;25851;-74
2022/04/30 11:29:14;;;;;;;9.30;6.62;;;;;;;23.66;32.82;97672.27;1567295;91;25792;-76
2022/04/30 11:31:43;;;;;;;12.98;6.20;;;;;;;23.58;32.11;97667.36;1567580;91;26505;-77
2022/04/30 11:36:52;;;;;;;10.45;5.92;;;;;;;23.34;33.52;97661.73;1541992;93;28061;-74
2022/04/30 11:39:21;;;;;;;7.85;6.72;;;;;;;23.22;33.38;97663.48;1494565;95;25888;-74
2022/04/30 11:41:51;;;;;;;10.35;6.30;;;;;;;22.95;32.82;97660.34;1494831;95;25808;-75
2022/04/30 11:44:20;;;;;;;8.00;6.20;;;;;;;22.86;33.37;97666.19;1494634;95;26563;-76
2022/04/30 11:46:51;;;;;;;9.30;6.12;;;;;;;22.92;33.49;97655.44;1494879;95;25985;-76
2022/04/30 11:49:21;;;;;;;8.55;6.12;;;;;;;22.70;32.88;97657.19;1485727;95;27449;-75
2022/04/30 11:51:51;;;;;;;7.45;5.58;;;;;;;22.75;33.25;97652.19;1495234;95;25921;-75
2022/04/30 11:54:20;;;;;;;11.68;5.87;;;;;;;22.87;32.99;97644.44;1501095;95;25847;-74
2022/04/30 11:56:48;;;;;;;10.88;5.53;;;;;;;23.02;33.07;97640.78;1501233;95;26035;-76
2022/04/30 11:59:15;;;;;;;6.55;5.40;;;;;;;23.13;33.55;97638.22;1501301;95;25803;-74
2022/04/30 12:01:42;;;;;;;8.25;5.00;;;;;;;23.33;32.74;97629.23;1519759;94;26812;-75
2022/04/30 12:04:14;;;;;;;8.95;5.08;;;;;;;23.37;33.05;97627.29;1524491;94;25340;-75
2022/04/30 12:06:45;;;;;;;9.70;5.80;;;;;;;23.55;32.40;97623.84;1511184;94;25900;-75
2022/04/30 12:09:18;;;;;;;8.38;6.08;;;;;;;23.41;31.80;97629.75;1513879;94;26537;-75
2022/04/30 12:11:50;;;;;;;8.38;6.20;;;;;;;23.22;31.40;97629.05;1445192;97;26008;-75
2022/04/30 12:14:16;;;;;;;7.03;5.53;;;;;;;23.17;31.64;97616.72;1403682;102;28348;-75
2022/04/30 12:16:45;;;;;;;7.75;5.17;;;;;;;23.22;31.59;97623.55;1403851;100;25875;-74
2022/04/30 12:25:16;;;;;;;7.25;4.28;;;;;;;23.74;30.80;97615.69;1411376;101;25963;-76